sensor_id;sensor_type;location;lat;lon;timestamp;temperature;humidity
21590;DHT22;10957;50.968;6.828;2023-05-23T00:00:34;14.90;99.90
21590;DHT22;10957;50.968;6.828;2023-05-23T00:05:36;14.80;99.90
21590;DHT22;10957;50.968;6.828;2023-05-23T00:10:38;14.80;99.90
21590;DHT22;10957;50.968;6.828;2023-05-23T00:15:40;14.90;99.90
21590;DHT22;10957;50.968;6.828;2023-05-23T00:20:42;14.70;99.90
21590;DHT22;10957;50.968;6.828;2023-05-23T00:25:44;14.50;99.90
21590;DHT22;10957;50.968;6.828;2023-05-23T00:30:48;14.50;99.90
21590;DHT22;10957;50.968;6.828;2023-05-23T00:35:49;14.50;99.90
21590;DHT22;10957;50.968;6.828;2023-05-23T00:40:51;14.30;99.90
21590;DHT22;10957;50.968;6.828;2023-05-23T00:45:52;14.50;99.90
21590;DHT22;10957;50.968;6.828;2023-05-23T00:50:55;14.30;99.90
21590;DHT22;10957;50.968;6.828;2023-05-23T00:55:57;14.40;99.90
21590;DHT22;10957;50.968;6.828;2023-05-23T01:00:58;14.60;99.90
21590;DHT22;10957;50.968;6.828;2023-05-23T01:06:00;14.60;99.90
21590;DHT22;10957;50.968;6.828;2023-05-23T01:11:07;14.60;99.90
21590;DHT22;10957;50.968;6.828;2023-05-23T01:16:35;14.80;99.90
21590;DHT22;10957;50.968;6.828;2023-05-23T01:21:38;15.00;99.90
21590;DHT22;10957;50.968;6.828;2023-05-23T01:32:09;15.20;99.90
21590;DHT22;10957;50.968;6.828;2023-05-23T01:37:11;15.20;99.90
21590;DHT22;10957;50.968;6.828;2023-05-23T01:42:15;14.90;99.90
21590;DHT22;10957;50.968;6.828;2023-05-23T01:47:17;15.00;99.90
21590;DHT22;10957;50.968;6.828;2023-05-23T01:52:20;15.00;99.90
21590;DHT22;10957;50.968;6.828;2023-05-23T01:57:23;14.70;99.90
21590;DHT22;10957;50.968;6.828;2023-05-23T02:02:25;14.70;99.90
21590;DHT22;10957;50.968;6.828;2023-05-23T02:07:27;15.00;99.90
21590;DHT22;10957;50.968;6.828;2023-05-23T02:12:28;14.80;95.40
21590;DHT22;10957;50.968;6.828;2023-05-23T02:17:29;14.80;95.40
21590;DHT22;10957;50.968;6.828;2023-05-23T02:22:30;14.90;84.40
21590;DHT22;10957;50.968;6.828;2023-05-23T02:27:32;15.00;93.80
21590;DHT22;10957;50.968;6.828;2023-05-23T02:32:33;14.80;99.90
21590;DHT22;10957;50.968;6.828;2023-05-23T02:37:35;14.90;99.90
21590;DHT22;10957;50.968;6.828;2023-05-23T02:42:38;15.00;95.10
21590;DHT22;10957;50.968;6.828;2023-05-23T02:47:40;14.80;99.90
21590;DHT22;10957;50.968;6.828;2023-05-23T02:52:43;14.70;99.90
21590;DHT22;10957;50.968;6.828;2023-05-23T02:57:45;14.70;99.90
21590;DHT22;10957;50.968;6.828;2023-05-23T03:02:46;14.90;99.90
21590;DHT22;10957;50.968;6.828;2023-05-23T03:07:47;14.80;99.90
21590;DHT22;10957;50.968;6.828;2023-05-23T03:12:48;14.80;99.90
21590;DHT22;10957;50.968;6.828;2023-05-23T03:17:51;14.70;99.90
21590;DHT22;10957;50.968;6.828;2023-05-23T03:22:52;14.70;99.90
21590;DHT22;10957;50.968;6.828;2023-05-23T03:27:54;14.90;99.90
21590;DHT22;10957;50.968;6.828;2023-05-23T03:32:56;14.80;99.90
21590;DHT22;10957;50.968;6.828;2023-05-23T03:37:57;14.70;99.90
21590;DHT22;10957;50.968;6.828;2023-05-23T03:43:05;14.60;99.90
21590;DHT22;10957;50.968;6.828;2023-05-23T03:48:08;14.50;99.90
21590;DHT22;10957;50.968;6.828;2023-05-23T03:53:10;14.40;99.90
21590;DHT22;10957;50.968;6.828;2023-05-23T03:58:12;14.60;99.90
21590;DHT22;10957;50.968;6.828;2023-05-23T04:03:16;14.50;99.90
21590;DHT22;10957;50.968;6.828;2023-05-23T04:08:17;14.40;99.90
21590;DHT22;10957;50.968;6.828;2023-05-23T04:13:22;14.50;99.90
21590;DHT22;10957;50.968;6.828;2023-05-23T04:18:25;14.30;99.90
21590;DHT22;10957;50.968;6.828;2023-05-23T04:23:27;14.20;99.90
21590;DHT22;10957;50.968;6.828;2023-05-23T04:28:30;14.20;99.90
21590;DHT22;10957;50.968;6.828;2023-05-23T04:33:34;14.60;99.90
21590;DHT22;10957;50.968;6.828;2023-05-23T04:38:38;14.50;99.90
21590;DHT22;10957;50.968;6.828;2023-05-23T04:43:41;14.40;99.90
21590;DHT22;10957;50.968;6.828;2023-05-23T04:48:57;14.10;99.90
21590;DHT22;10957;50.968;6.828;2023-05-23T04:54:01;14.50;99.90
21590;DHT22;10957;50.968;6.828;2023-05-23T04:59:02;14.50;99.90
21590;DHT22;10957;50.968;6.828;2023-05-23T05:04:05;14.00;99.90
21590;DHT22;10957;50.968;6.828;2023-05-23T05:09:07;14.60;99.90
21590;DHT22;10957;50.968;6.828;2023-05-23T05:14:09;14.20;99.90
21590;DHT22;10957;50.968;6.828;2023-05-23T05:19:11;14.10;99.90
21590;DHT22;10957;50.968;6.828;2023-05-23T05:24:12;14.40;99.90
21590;DHT22;10957;50.968;6.828;2023-05-23T05:29:14;14.30;99.90
21590;DHT22;10957;50.968;6.828;2023-05-23T05:34:16;14.50;99.90
21590;DHT22;10957;50.968;6.828;2023-05-23T05:39:19;14.90;99.90
21590;DHT22;10957;50.968;6.828;2023-05-23T05:44:21;14.60;99.90
21590;DHT22;10957;50.968;6.828;2023-05-23T05:49:22;14.50;99.90
21590;DHT22;10957;50.968;6.828;2023-05-23T05:54:24;14.60;99.90
21590;DHT22;10957;50.968;6.828;2023-05-23T05:59:25;14.10;99.90
21590;DHT22;10957;50.968;6.828;2023-05-23T06:04:27;14.50;99.90
21590;DHT22;10957;50.968;6.828;2023-05-23T06:09:29;14.00;99.90
21590;DHT22;10957;50.968;6.828;2023-05-23T06:14:30;14.00;99.90
21590;DHT22;10957;50.968;6.828;2023-05-23T06:19:31;14.30;99.90
21590;DHT22;10957;50.968;6.828;2023-05-23T06:24:34;14.50;99.90
21590;DHT22;10957;50.968;6.828;2023-05-23T06:29:37;14.10;99.90
21590;DHT22;10957;50.968;6.828;2023-05-23T06:34:39;14.40;99.90
21590;DHT22;10957;50.968;6.828;2023-05-23T06:39:41;14.60;99.90
21590;DHT22;10957;50.968;6.828;2023-05-23T06:44:42;14.30;99.90
21590;DHT22;10957;50.968;6.828;2023-05-23T06:49:46;14.20;99.90
21590;DHT22;10957;50.968;6.828;2023-05-23T06:54:47;14.30;99.90
21590;DHT22;10957;50.968;6.828;2023-05-23T06:59:48;14.50;99.90
21590;DHT22;10957;50.968;6.828;2023-05-23T07:04:50;14.80;99.90
21590;DHT22;10957;50.968;6.828;2023-05-23T07:10:05;14.60;99.90
21590;DHT22;10957;50.968;6.828;2023-05-23T07:15:07;15.00;99.90
21590;DHT22;10957;50.968;6.828;2023-05-23T07:20:12;14.80;99.90
21590;DHT22;10957;50.968;6.828;2023-05-23T07:25:18;14.50;99.90
21590;DHT22;10957;50.968;6.828;2023-05-23T07:30:20;15.00;99.90
21590;DHT22;10957;50.968;6.828;2023-05-23T07:35:22;14.80;99.90
21590;DHT22;10957;50.968;6.828;2023-05-23T07:40:26;14.80;97.40
21590;DHT22;10957;50.968;6.828;2023-05-23T07:45:27;15.00;81.70
21590;DHT22;10957;50.968;6.828;2023-05-23T07:50:29;14.90;53.20
21590;DHT22;10957;50.968;6.828;2023-05-23T07:55:31;15.30;28.40
21590;DHT22;10957;50.968;6.828;2023-05-23T08:00:33;15.10;43.90
21590;DHT22;10957;50.968;6.828;2023-05-23T08:05:43;14.70;41.40
21590;DHT22;10957;50.968;6.828;2023-05-23T08:10:45;14.90;49.60
21590;DHT22;10957;50.968;6.828;2023-05-23T08:15:54;14.70;56.30
21590;DHT22;10957;50.968;6.828;2023-05-23T08:20:59;15.00;53.70
21590;DHT22;10957;50.968;6.828;2023-05-23T08:26:03;15.20;13.40
21590;DHT22;10957;50.968;6.828;2023-05-23T08:31:06;15.20;27.30
21590;DHT22;10957;50.968;6.828;2023-05-23T08:36:08;15.10;40.70
21590;DHT22;10957;50.968;6.828;2023-05-23T08:41:17;14.80;66.80
21590;DHT22;10957;50.968;6.828;2023-05-23T08:46:20;15.00;61.70
21590;DHT22;10957;50.968;6.828;2023-05-23T08:51:25;14.60;75.80
21590;DHT22;10957;50.968;6.828;2023-05-23T08:56:26;14.50;99.90
21590;DHT22;10957;50.968;6.828;2023-05-23T09:01:29;14.30;74.80
21590;DHT22;10957;50.968;6.828;2023-05-23T09:06:34;14.40;90.70
21590;DHT22;10957;50.968;6.828;2023-05-23T09:11:36;14.60;99.90
21590;DHT22;10957;50.968;6.828;2023-05-23T09:16:50;14.50;99.90
21590;DHT22;10957;50.968;6.828;2023-05-23T09:21:56;14.60;99.90
21590;DHT22;10957;50.968;6.828;2023-05-23T09:27:04;14.30;99.90
21590;DHT22;10957;50.968;6.828;2023-05-23T09:32:15;14.10;99.90
21590;DHT22;10957;50.968;6.828;2023-05-23T09:37:16;14.30;99.90
21590;DHT22;10957;50.968;6.828;2023-05-23T09:42:20;14.30;99.90
21590;DHT22;10957;50.968;6.828;2023-05-23T09:47:22;14.30;76.40
21590;DHT22;10957;50.968;6.828;2023-05-23T09:52:24;14.30;94.10
21590;DHT22;10957;50.968;6.828;2023-05-23T09:57:26;14.20;99.90
21590;DHT22;10957;50.968;6.828;2023-05-23T10:03:03;14.60;99.90
21590;DHT22;10957;50.968;6.828;2023-05-23T10:08:14;14.90;67.10
21590;DHT22;10957;50.968;6.828;2023-05-23T10:13:16;14.40;37.50
21590;DHT22;10957;50.968;6.828;2023-05-23T10:18:24;14.50;15.80
21590;DHT22;10957;50.968;6.828;2023-05-23T10:23:27;14.90;1.00
21590;DHT22;10957;50.968;6.828;2023-05-23T10:28:32;15.40;1.00
21590;DHT22;10957;50.968;6.828;2023-05-23T10:33:40;15.70;1.00
21590;DHT22;10957;50.968;6.828;2023-05-23T10:38:59;15.20;1.00
21590;DHT22;10957;50.968;6.828;2023-05-23T10:44:22;15.10;1.00
21590;DHT22;10957;50.968;6.828;2023-05-23T10:49:37;14.10;1.00
21590;DHT22;10957;50.968;6.828;2023-05-23T10:59:45;14.10;1.00
21590;DHT22;10957;50.968;6.828;2023-05-23T11:05:26;13.90;1.00
21590;DHT22;10957;50.968;6.828;2023-05-23T11:10:31;14.20;1.00
21590;DHT22;10957;50.968;6.828;2023-05-23T11:15:42;14.50;1.00
21590;DHT22;10957;50.968;6.828;2023-05-23T11:20:45;14.80;1.00
21590;DHT22;10957;50.968;6.828;2023-05-23T11:25:50;14.60;1.00
21590;DHT22;10957;50.968;6.828;2023-05-23T11:30:52;15.00;1.00
21590;DHT22;10957;50.968;6.828;2023-05-23T11:35:53;15.30;1.00
21590;DHT22;10957;50.968;6.828;2023-05-23T11:40:55;15.80;1.00
21590;DHT22;10957;50.968;6.828;2023-05-23T11:45:56;16.20;1.00
21590;DHT22;10957;50.968;6.828;2023-05-23T11:50:58;16.50;1.00
21590;DHT22;10957;50.968;6.828;2023-05-23T11:56:01;17.10;1.00
21590;DHT22;10957;50.968;6.828;2023-05-23T12:01:07;17.40;1.00
21590;DHT22;10957;50.968;6.828;2023-05-23T12:06:09;17.20;1.00
21590;DHT22;10957;50.968;6.828;2023-05-23T12:11:10;17.20;1.00
21590;DHT22;10957;50.968;6.828;2023-05-23T12:16:14;17.00;1.00
21590;DHT22;10957;50.968;6.828;2023-05-23T12:21:15;17.10;1.00
21590;DHT22;10957;50.968;6.828;2023-05-23T12:26:17;16.70;99.90
21590;DHT22;10957;50.968;6.828;2023-05-23T12:31:20;16.80;1.00
21590;DHT22;10957;50.968;6.828;2023-05-23T12:36:24;16.90;99.90
21590;DHT22;10957;50.968;6.828;2023-05-23T12:41:26;17.10;99.90
21590;DHT22;10957;50.968;6.828;2023-05-23T12:46:27;17.00;99.90
21590;DHT22;10957;50.968;6.828;2023-05-23T12:51:28;16.80;99.90
21590;DHT22;10957;50.968;6.828;2023-05-23T12:56:30;16.40;99.90
21590;DHT22;10957;50.968;6.828;2023-05-23T13:01:31;16.40;99.90
21590;DHT22;10957;50.968;6.828;2023-05-23T13:06:34;16.60;99.90
21590;DHT22;10957;50.968;6.828;2023-05-23T13:11:35;17.40;99.90
21590;DHT22;10957;50.968;6.828;2023-05-23T13:16:37;17.70;99.90
21590;DHT22;10957;50.968;6.828;2023-05-23T13:21:39;17.50;99.90
21590;DHT22;10957;50.968;6.828;2023-05-23T13:26:40;17.40;99.90
21590;DHT22;10957;50.968;6.828;2023-05-23T13:31:41;17.20;99.90
21590;DHT22;10957;50.968;6.828;2023-05-23T13:36:43;17.80;99.90
21590;DHT22;10957;50.968;6.828;2023-05-23T13:41:44;18.70;99.90
21590;DHT22;10957;50.968;6.828;2023-05-23T13:46:45;18.10;99.90
21590;DHT22;10957;50.968;6.828;2023-05-23T13:51:46;17.80;99.90
21590;DHT22;10957;50.968;6.828;2023-05-23T13:56:49;17.40;99.90
21590;DHT22;10957;50.968;6.828;2023-05-23T14:01:51;17.70;99.90
21590;DHT22;10957;50.968;6.828;2023-05-23T14:06:53;17.30;99.90
21590;DHT22;10957;50.968;6.828;2023-05-23T14:11:54;18.20;99.90
21590;DHT22;10957;50.968;6.828;2023-05-23T14:16:56;17.60;99.90
21590;DHT22;10957;50.968;6.828;2023-05-23T14:21:58;17.70;99.90
21590;DHT22;10957;50.968;6.828;2023-05-23T14:26:59;17.80;99.90
21590;DHT22;10957;50.968;6.828;2023-05-23T14:32:02;17.90;99.90
21590;DHT22;10957;50.968;6.828;2023-05-23T14:37:04;17.50;99.90
21590;DHT22;10957;50.968;6.828;2023-05-23T14:42:05;17.00;99.90
21590;DHT22;10957;50.968;6.828;2023-05-23T14:47:06;17.10;99.90
21590;DHT22;10957;50.968;6.828;2023-05-23T14:52:07;17.40;99.90
21590;DHT22;10957;50.968;6.828;2023-05-23T14:57:09;17.50;99.90
21590;DHT22;10957;50.968;6.828;2023-05-23T15:02:10;17.40;99.90
21590;DHT22;10957;50.968;6.828;2023-05-23T15:07:12;17.10;99.90
21590;DHT22;10957;50.968;6.828;2023-05-23T15:12:14;17.00;99.90
21590;DHT22;10957;50.968;6.828;2023-05-23T15:17:16;16.90;99.90
21590;DHT22;10957;50.968;6.828;2023-05-23T15:22:20;16.70;99.90
21590;DHT22;10957;50.968;6.828;2023-05-23T15:27:21;17.50;99.90
21590;DHT22;10957;50.968;6.828;2023-05-23T15:32:23;18.30;99.90
21590;DHT22;10957;50.968;6.828;2023-05-23T15:37:25;18.30;99.90
21590;DHT22;10957;50.968;6.828;2023-05-23T15:42:26;17.50;99.90
21590;DHT22;10957;50.968;6.828;2023-05-23T15:47:27;17.50;99.90
21590;DHT22;10957;50.968;6.828;2023-05-23T15:52:29;18.00;99.90
21590;DHT22;10957;50.968;6.828;2023-05-23T15:57:31;18.40;99.90
21590;DHT22;10957;50.968;6.828;2023-05-23T16:02:33;18.60;99.90
21590;DHT22;10957;50.968;6.828;2023-05-23T16:07:35;18.60;99.90
21590;DHT22;10957;50.968;6.828;2023-05-23T16:12:36;18.70;99.90
21590;DHT22;10957;50.968;6.828;2023-05-23T16:17:38;18.90;99.90
21590;DHT22;10957;50.968;6.828;2023-05-23T16:22:39;18.40;99.90
21590;DHT22;10957;50.968;6.828;2023-05-23T16:27:41;18.30;99.90
21590;DHT22;10957;50.968;6.828;2023-05-23T16:32:42;18.00;99.90
21590;DHT22;10957;50.968;6.828;2023-05-23T16:37:43;18.00;99.90
21590;DHT22;10957;50.968;6.828;2023-05-23T16:42:45;17.50;99.90
21590;DHT22;10957;50.968;6.828;2023-05-23T16:47:46;17.10;99.90
21590;DHT22;10957;50.968;6.828;2023-05-23T16:52:48;17.30;99.90
21590;DHT22;10957;50.968;6.828;2023-05-23T16:57:49;17.00;99.90
21590;DHT22;10957;50.968;6.828;2023-05-23T17:02:51;16.70;99.90
21590;DHT22;10957;50.968;6.828;2023-05-23T17:07:52;16.90;99.90
21590;DHT22;10957;50.968;6.828;2023-05-23T17:12:54;16.90;99.90
21590;DHT22;10957;50.968;6.828;2023-05-23T17:17:56;16.90;99.90
21590;DHT22;10957;50.968;6.828;2023-05-23T17:22:57;16.60;99.90
21590;DHT22;10957;50.968;6.828;2023-05-23T17:27:58;16.30;99.90
21590;DHT22;10957;50.968;6.828;2023-05-23T17:32:59;16.50;99.90
21590;DHT22;10957;50.968;6.828;2023-05-23T17:38:01;16.60;99.90
21590;DHT22;10957;50.968;6.828;2023-05-23T17:43:02;16.60;99.90
21590;DHT22;10957;50.968;6.828;2023-05-23T17:48:03;16.60;99.90
21590;DHT22;10957;50.968;6.828;2023-05-23T17:53:05;16.30;99.90
21590;DHT22;10957;50.968;6.828;2023-05-23T17:58:06;16.20;99.90
21590;DHT22;10957;50.968;6.828;2023-05-23T18:03:08;16.10;99.90
21590;DHT22;10957;50.968;6.828;2023-05-23T18:08:09;15.70;99.90
21590;DHT22;10957;50.968;6.828;2023-05-23T18:13:11;15.60;99.90
21590;DHT22;10957;50.968;6.828;2023-05-23T18:18:13;14.80;99.90
21590;DHT22;10957;50.968;6.828;2023-05-23T18:23:14;15.10;99.90
21590;DHT22;10957;50.968;6.828;2023-05-23T18:28:16;14.90;99.90
21590;DHT22;10957;50.968;6.828;2023-05-23T18:33:17;15.00;99.90
21590;DHT22;10957;50.968;6.828;2023-05-23T18:38:19;14.80;99.90
21590;DHT22;10957;50.968;6.828;2023-05-23T18:43:21;14.40;99.90
21590;DHT22;10957;50.968;6.828;2023-05-23T18:48:22;14.40;99.90
21590;DHT22;10957;50.968;6.828;2023-05-23T18:53:23;14.40;99.90
21590;DHT22;10957;50.968;6.828;2023-05-23T18:58:24;14.10;99.90
21590;DHT22;10957;50.968;6.828;2023-05-23T19:03:26;14.20;99.90
21590;DHT22;10957;50.968;6.828;2023-05-23T19:08:31;13.70;99.90
21590;DHT22;10957;50.968;6.828;2023-05-23T19:13:32;13.60;99.90
21590;DHT22;10957;50.968;6.828;2023-05-23T19:18:34;13.60;99.90
21590;DHT22;10957;50.968;6.828;2023-05-23T19:23:35;13.20;99.90
21590;DHT22;10957;50.968;6.828;2023-05-23T19:28:36;12.90;99.90
21590;DHT22;10957;50.968;6.828;2023-05-23T19:33:38;12.70;99.90
21590;DHT22;10957;50.968;6.828;2023-05-23T19:38:39;12.70;99.90
21590;DHT22;10957;50.968;6.828;2023-05-23T19:43:40;12.80;99.90
21590;DHT22;10957;50.968;6.828;2023-05-23T19:48:41;12.60;99.90
21590;DHT22;10957;50.968;6.828;2023-05-23T19:53:43;12.10;99.90
21590;DHT22;10957;50.968;6.828;2023-05-23T19:58:44;12.10;99.90
21590;DHT22;10957;50.968;6.828;2023-05-23T20:03:46;12.10;99.90
21590;DHT22;10957;50.968;6.828;2023-05-23T20:08:47;11.90;99.90
21590;DHT22;10957;50.968;6.828;2023-05-23T20:13:49;11.90;99.90
21590;DHT22;10957;50.968;6.828;2023-05-23T20:18:50;12.00;99.90
21590;DHT22;10957;50.968;6.828;2023-05-23T20:23:51;11.70;99.90
21590;DHT22;10957;50.968;6.828;2023-05-23T20:28:52;11.70;99.90
21590;DHT22;10957;50.968;6.828;2023-05-23T20:33:54;11.50;99.90
21590;DHT22;10957;50.968;6.828;2023-05-23T20:38:55;11.50;99.90
21590;DHT22;10957;50.968;6.828;2023-05-23T20:43:56;11.30;99.90
21590;DHT22;10957;50.968;6.828;2023-05-23T20:48:58;11.10;99.90
21590;DHT22;10957;50.968;6.828;2023-05-23T20:53:59;11.30;99.90
21590;DHT22;10957;50.968;6.828;2023-05-23T20:59:00;11.30;99.90
21590;DHT22;10957;50.968;6.828;2023-05-23T21:04:02;11.10;99.90
21590;DHT22;10957;50.968;6.828;2023-05-23T21:09:03;10.70;99.90
21590;DHT22;10957;50.968;6.828;2023-05-23T21:14:04;10.90;99.90
21590;DHT22;10957;50.968;6.828;2023-05-23T21:19:06;10.80;99.90
21590;DHT22;10957;50.968;6.828;2023-05-23T21:24:07;10.80;99.90
21590;DHT22;10957;50.968;6.828;2023-05-23T21:29:09;10.40;99.90
21590;DHT22;10957;50.968;6.828;2023-05-23T21:34:10;10.30;99.90
21590;DHT22;10957;50.968;6.828;2023-05-23T21:39:11;10.10;99.90
21590;DHT22;10957;50.968;6.828;2023-05-23T21:44:13;10.40;99.90
21590;DHT22;10957;50.968;6.828;2023-05-23T21:49:15;10.20;99.90
21590;DHT22;10957;50.968;6.828;2023-05-23T21:54:17;9.90;99.90
21590;DHT22;10957;50.968;6.828;2023-05-23T21:59:25;10.10;99.90
21590;DHT22;10957;50.968;6.828;2023-05-23T22:04:27;10.00;99.90
21590;DHT22;10957;50.968;6.828;2023-05-23T22:09:28;9.90;99.90
21590;DHT22;10957;50.968;6.828;2023-05-23T22:14:29;10.10;99.90
21590;DHT22;10957;50.968;6.828;2023-05-23T22:19:31;10.00;99.90
21590;DHT22;10957;50.968;6.828;2023-05-23T22:24:32;9.70;99.90
21590;DHT22;10957;50.968;6.828;2023-05-23T22:29:33;9.70;99.90
21590;DHT22;10957;50.968;6.828;2023-05-23T22:34:35;9.60;99.90
21590;DHT22;10957;50.968;6.828;2023-05-23T22:39:39;9.40;99.90
21590;DHT22;10957;50.968;6.828;2023-05-23T22:44:40;9.30;99.90
21590;DHT22;10957;50.968;6.828;2023-05-23T22:49:41;9.50;99.90
21590;DHT22;10957;50.968;6.828;2023-05-23T22:54:43;9.20;99.90
21590;DHT22;10957;50.968;6.828;2023-05-23T22:59:44;9.10;99.90
21590;DHT22;10957;50.968;6.828;2023-05-23T23:04:45;9.10;99.90
21590;DHT22;10957;50.968;6.828;2023-05-23T23:09:48;9.10;99.90
21590;DHT22;10957;50.968;6.828;2023-05-23T23:14:49;9.00;99.90
21590;DHT22;10957;50.968;6.828;2023-05-23T23:19:50;8.50;99.90
21590;DHT22;10957;50.968;6.828;2023-05-23T23:24:52;8.70;99.90
21590;DHT22;10957;50.968;6.828;2023-05-23T23:29:53;8.80;99.90
21590;DHT22;10957;50.968;6.828;2023-05-23T23:34:54;8.70;99.90
21590;DHT22;10957;50.968;6.828;2023-05-23T23:39:56;8.60;99.90
21590;DHT22;10957;50.968;6.828;2023-05-23T23:44:57;8.40;99.90
21590;DHT22;10957;50.968;6.828;2023-05-23T23:49:58;8.50;99.90
21590;DHT22;10957;50.968;6.828;2023-05-23T23:54:59;8.50;99.90
